createdAt,value
2022-11-27T00:02:44.222Z,24.80
2022-11-27T00:07:51.395Z,24.54
2022-11-27T00:12:58.462Z,24.25
2022-11-27T00:18:05.598Z,24.31
2022-11-27T00:23:12.767Z,24.12
2022-11-27T00:28:19.950Z,24.08
2022-11-27T00:33:27.139Z,24.17
2022-11-27T00:38:38.491Z,24.55
2022-11-27T00:43:45.471Z,24.10
2022-11-27T00:48:48.776Z,24.28
2022-11-27T00:53:55.934Z,24.31
2022-11-27T00:59:03.169Z,23.93
2022-11-27T01:04:10.339Z,24.13
2022-11-27T01:09:17.560Z,23.97
2022-11-27T01:14:24.860Z,23.79
2022-11-27T01:19:31.954Z,23.68
2022-11-27T01:24:39.425Z,23.89
2022-11-27T01:29:46.359Z,25.32
2022-11-27T01:34:54.492Z,25.54
2022-11-27T01:40:00.785Z,25.77
2022-11-27T01:45:08.038Z,26.13
2022-11-27T01:50:15.243Z,26.07
2022-11-27T01:55:22.633Z,26.14
2022-11-27T02:00:29.863Z,25.71
2022-11-27T02:05:37.038Z,25.66
2022-11-27T02:10:44.265Z,24.97
2022-11-27T02:15:51.481Z,24.30
2022-11-27T02:20:58.652Z,24.10
2022-11-27T02:26:05.885Z,23.86
2022-11-27T02:31:13.183Z,23.76
2022-11-27T02:36:20.555Z,23.70
2022-11-27T02:41:27.754Z,23.02
2022-11-27T02:46:35.157Z,22.54
2022-11-27T02:51:42.187Z,23.05
2022-11-27T02:56:49.374Z,23.20
2022-11-27T03:01:56.795Z,22.90
2022-11-27T03:07:03.846Z,23.05
2022-11-27T03:12:11.106Z,22.97
2022-11-27T03:17:18.410Z,23.06
2022-11-27T03:22:25.483Z,23.05
2022-11-27T03:27:32.638Z,23.30
2022-11-27T03:32:39.963Z,24.04
2022-11-27T03:37:47.068Z,24.32
2022-11-27T03:42:54.237Z,24.61
2022-11-27T03:48:07.417Z,25.26
2022-11-27T03:53:08.755Z,25.55
2022-11-27T03:58:15.858Z,26.79
2022-11-27T04:03:23.078Z,26.66
2022-11-27T04:08:30.457Z,26.42
2022-11-27T04:13:37.503Z,26.36
2022-11-27T04:18:44.743Z,26.41
2022-11-27T04:23:52.067Z,26.41
2022-11-27T04:28:59.166Z,26.39
2022-11-27T04:34:06.408Z,26.90
2022-11-27T04:39:13.698Z,26.57
2022-11-27T04:44:20.795Z,26.62
2022-11-27T04:49:27.970Z,26.76
2022-11-27T04:54:35.313Z,26.79
2022-11-27T04:59:42.379Z,26.86
2022-11-27T05:04:49.612Z,26.97
2022-11-27T05:09:56.965Z,27.14
2022-11-27T05:15:04.804Z,27.09
2022-11-27T05:20:11.324Z,27.55
2022-11-27T05:25:18.648Z,27.61
2022-11-27T05:30:25.795Z,27.60
2022-11-27T05:35:33.046Z,27.50
2022-11-27T05:40:40.371Z,27.44
2022-11-27T05:45:47.489Z,27.44
2022-11-27T05:50:54.752Z,27.43
2022-11-27T05:56:07.099Z,27.41
2022-11-27T06:01:09.287Z,27.49
2022-11-27T06:06:16.370Z,27.50
2022-11-27T06:11:23.568Z,27.57
2022-11-27T06:16:30.977Z,27.57
2022-11-27T06:21:38.007Z,27.61
2022-11-27T06:26:45.258Z,27.57
2022-11-27T06:31:52.600Z,27.58
2022-11-27T06:36:59.663Z,27.58
2022-11-27T06:42:06.879Z,27.49
2022-11-27T06:47:14.195Z,27.36
2022-11-27T06:52:21.250Z,27.23
2022-11-27T06:57:28.415Z,27.36
2022-11-27T07:02:35.800Z,27.12
2022-11-27T07:07:44.009Z,27.56
2022-11-27T07:12:49.994Z,27.76
2022-11-27T07:17:57.333Z,27.67
2022-11-27T07:23:04.423Z,27.65
2022-11-27T07:28:15.987Z,27.60
2022-11-27T07:33:19.096Z,27.52
2022-11-27T07:38:26.194Z,27.52
2022-11-27T07:43:33.337Z,27.46
2022-11-27T07:48:40.664Z,27.49
2022-11-27T07:53:47.762Z,27.52
2022-11-27T07:58:54.951Z,27.53
2022-11-27T08:04:08.165Z,27.60
2022-11-27T08:09:09.486Z,27.62
2022-11-27T08:14:16.596Z,27.64
2022-11-27T08:19:23.776Z,27.69
2022-11-27T08:24:31.106Z,27.71
2022-11-27T08:29:38.131Z,27.76
2022-11-27T08:34:45.315Z,27.73
2022-11-27T08:39:52.617Z,27.76
2022-11-27T08:44:59.723Z,27.75
2022-11-27T08:50:06.944Z,27.76
2022-11-27T08:55:14.222Z,27.71
2022-11-27T09:00:26.394Z,27.91
2022-11-27T09:05:28.538Z,29.41
2022-11-27T09:10:35.836Z,28.80
2022-11-27T09:15:42.913Z,28.56
2022-11-27T09:20:50.119Z,28.33
2022-11-27T09:25:57.506Z,28.05
2022-11-27T09:31:04.628Z,27.72
2022-11-27T09:36:11.852Z,27.44
2022-11-27T09:41:19.191Z,27.24
2022-11-27T09:46:26.303Z,27.15
2022-11-27T09:51:33.367Z,27.06
2022-11-27T09:56:40.682Z,27.13
2022-11-27T10:01:51.027Z,26.84
2022-11-27T10:06:55.136Z,26.74
2022-11-27T10:12:02.523Z,26.90
2022-11-27T10:17:09.655Z,26.91
2022-11-27T10:22:20.949Z,26.77
2022-11-27T10:27:24.115Z,26.67
2022-11-27T10:32:54.688Z,26.69
2022-11-27T10:37:39.021Z,26.74
2022-11-27T10:42:46.316Z,27.30
2022-11-27T10:47:53.421Z,27.28
2022-11-27T10:53:00.603Z,27.44
2022-11-27T10:58:07.946Z,27.07
2022-11-27T11:03:15.028Z,26.78
2022-11-27T11:08:22.240Z,26.73
2022-11-27T11:13:29.569Z,26.67
2022-11-27T11:18:36.648Z,26.41
2022-11-27T11:23:43.853Z,26.22
2022-11-27T11:28:51.171Z,26.16
2022-11-27T11:33:58.243Z,26.11
2022-11-27T11:39:05.463Z,26.06
2022-11-27T11:44:12.783Z,25.96
2022-11-27T11:49:19.886Z,25.95
2022-11-27T11:54:27.096Z,25.92
2022-11-27T11:59:34.398Z,25.86
2022-11-27T12:04:41.884Z,25.80
2022-11-27T12:09:48.886Z,25.78
2022-11-27T12:14:56.205Z,25.75
2022-11-27T12:20:03.306Z,25.73
2022-11-27T12:25:10.507Z,25.79
2022-11-27T12:30:17.896Z,25.71
2022-11-27T12:35:24.928Z,25.69
2022-11-27T12:40:32.154Z,25.67
2022-11-27T12:45:39.573Z,25.67
2022-11-27T12:50:46.640Z,25.69
2022-11-27T12:55:53.883Z,25.68
2022-11-27T13:01:01.897Z,25.67
2022-11-27T13:06:08.893Z,25.67
2022-11-27T13:11:16.300Z,25.68
2022-11-27T13:16:23.736Z,25.68
2022-11-27T13:21:30.735Z,25.69
2022-11-27T13:26:38.006Z,25.71
2022-11-27T13:31:45.579Z,25.69
2022-11-27T13:36:52.711Z,25.69
2022-11-27T13:42:00.522Z,25.67
2022-11-27T13:47:13.969Z,25.67
2022-11-27T13:52:15.384Z,25.68
2022-11-27T13:57:22.575Z,25.70
2022-11-27T14:02:29.886Z,25.67
2022-11-27T14:07:37.278Z,25.68
2022-11-27T14:12:44.312Z,25.71
2022-11-27T14:17:51.784Z,25.77
2022-11-27T14:23:14.338Z,25.75
2022-11-27T14:28:06.410Z,25.77
2022-11-27T14:33:13.671Z,26.08
2022-11-27T14:38:21.334Z,26.04
2022-11-27T14:43:28.469Z,25.96
2022-11-27T14:48:36.033Z,26.14
2022-11-27T14:53:43.522Z,25.87
2022-11-27T14:58:50.951Z,25.80
2022-11-27T15:03:58.375Z,25.72
2022-11-27T15:09:43.298Z,25.82
2022-11-27T15:14:13.164Z,25.73
2022-11-27T15:19:20.694Z,25.64
2022-11-27T15:24:28.139Z,25.73
2022-11-27T15:29:35.231Z,25.63
2022-11-27T15:34:42.688Z,25.64
2022-11-27T15:39:49.747Z,25.72
2022-11-27T15:44:56.838Z,25.69
2022-11-27T15:50:04.119Z,25.58
2022-11-27T15:55:11.477Z,25.57
2022-11-27T16:00:18.851Z,25.58
2022-11-27T16:05:26.458Z,25.51
2022-11-27T16:10:33.964Z,25.49
2022-11-27T16:15:41.390Z,25.54
2022-11-27T16:20:48.999Z,25.49
2022-11-27T16:25:56.471Z,25.65
2022-11-27T16:31:03.819Z,25.58
2022-11-27T16:36:11.530Z,25.52
2022-11-27T16:41:19.276Z,25.58
2022-11-27T16:46:26.654Z,25.54
2022-11-27T16:51:33.999Z,25.49
2022-11-27T16:56:41.489Z,25.57
2022-11-27T17:01:50.039Z,25.91
2022-11-27T17:06:57.753Z,25.50
2022-11-27T17:12:05.145Z,25.68
2022-11-27T17:17:12.544Z,25.56
2022-11-27T17:22:20.056Z,25.49
2022-11-27T17:27:29.428Z,25.47
2022-11-27T17:32:36.719Z,25.42
2022-11-27T17:37:44.230Z,25.34
2022-11-27T17:42:51.968Z,26.48
2022-11-27T17:47:59.562Z,26.40
2022-11-27T17:53:07.080Z,26.44
2022-11-27T17:58:14.745Z,26.46
2022-11-27T18:03:21.947Z,27.08
2022-11-27T18:08:29.416Z,27.46
2022-11-27T18:13:37.237Z,26.84
2022-11-27T18:18:44.737Z,27.92
2022-11-27T18:28:59.982Z,28.04
2022-11-27T18:34:07.582Z,28.09
2022-11-27T18:39:15.194Z,28.13
2022-11-27T18:44:22.902Z,27.96
2022-11-27T18:49:30.098Z,27.28
2022-11-27T18:54:37.636Z,27.11
2022-11-27T18:59:50.474Z,27.52
2022-11-27T19:04:53.086Z,27.84
2022-11-27T19:10:00.676Z,28.43
2022-11-27T19:15:08.397Z,28.51
2022-11-27T19:20:16.127Z,28.33
2022-11-27T19:25:23.627Z,28.56
2022-11-27T19:30:34.219Z,28.40
2022-11-27T19:35:39.597Z,28.56
2022-11-27T19:40:47.083Z,28.40
2022-11-27T19:45:54.794Z,28.33
2022-11-27T19:51:03.451Z,28.29
2022-11-27T19:56:11.049Z,28.24
2022-11-27T20:01:18.863Z,28.16
2022-11-27T20:06:26.608Z,28.01
2022-11-27T20:11:35.329Z,28.27
2022-11-27T20:16:42.062Z,28.23
2022-11-27T20:21:49.860Z,28.29
2022-11-27T20:26:57.461Z,28.07
2022-11-27T20:32:05.185Z,28.10
2022-11-27T20:37:12.800Z,28.02
2022-11-27T20:42:20.298Z,27.97
2022-11-27T20:47:27.616Z,27.86
2022-11-27T20:52:34.913Z,27.92
2022-11-27T20:57:42.318Z,27.89
2022-11-27T21:02:50.028Z,27.88
2022-11-27T21:07:57.510Z,27.89
2022-11-27T21:13:04.493Z,27.79
2022-11-27T21:18:11.767Z,27.90
2022-11-27T21:23:19.387Z,27.96
2022-11-27T21:28:26.878Z,27.93
2022-11-27T21:33:34.186Z,28.15
2022-11-27T21:38:41.826Z,28.15
2022-11-27T21:43:49.042Z,28.11
2022-11-27T21:48:56.231Z,27.86
2022-11-27T21:54:03.523Z,27.90
2022-11-27T21:59:10.629Z,27.82
2022-11-27T22:04:17.911Z,27.73
2022-11-27T22:09:25.152Z,27.57
2022-11-27T22:14:32.292Z,27.68
2022-11-27T22:19:39.440Z,27.72
2022-11-27T22:24:46.781Z,27.72
2022-11-27T22:29:53.849Z,27.62
2022-11-27T22:35:01.082Z,27.58
2022-11-27T22:40:08.459Z,27.60
2022-11-27T22:45:15.596Z,27.55
2022-11-27T22:50:23.449Z,27.54
2022-11-27T22:55:30.815Z,27.41
2022-11-27T23:00:38.122Z,27.42
2022-11-27T23:05:45.719Z,27.78
2022-11-27T23:10:53.036Z,27.76
2022-11-27T23:16:00.153Z,27.79
2022-11-27T23:21:07.439Z,27.91
2022-11-27T23:26:17.866Z,27.85
2022-11-27T23:31:29.802Z,27.96
2022-11-27T23:36:29.010Z,28.01
2022-11-27T23:41:36.394Z,28.12
2022-11-27T23:46:43.454Z,27.89
2022-11-27T23:51:50.661Z,27.92
2022-11-27T23:56:57.955Z,27.92
